createdAt,value
2023-11-24T00:00:33.798Z,99176.97
2023-11-24T00:03:01.539Z,99165.41
2023-11-24T00:05:28.954Z,99172.53
2023-11-24T00:07:56.361Z,99164.53
2023-11-24T00:10:24.295Z,99172.47
2023-11-24T00:12:51.768Z,99167.41
2023-11-24T00:15:19.245Z,99158.03
2023-11-24T00:17:47.850Z,99150.50
2023-11-24T00:20:15.588Z,99137.53
2023-11-24T00:22:43.558Z,99132.25
2023-11-24T00:25:11.262Z,99130.19
2023-11-24T00:27:38.729Z,99113.50
2023-11-24T00:30:08.320Z,99105.12
2023-11-24T00:32:36.095Z,99101.66
2023-11-24T00:35:07.582Z,99080.75
2023-11-24T00:37:34.965Z,99068.91
2023-11-24T00:40:03.926Z,99066.19
2023-11-24T00:42:31.316Z,99065.75
2023-11-24T00:44:58.713Z,99064.75
2023-11-24T00:47:27.362Z,99059.88
2023-11-24T00:49:55.273Z,99064.09
2023-11-24T00:52:22.728Z,99056.03
2023-11-24T00:54:50.586Z,99054.69
2023-11-24T00:57:18.032Z,99067.28
2023-11-24T00:59:45.380Z,99069.53
2023-11-24T01:02:14.113Z,99058.25
2023-11-24T01:04:41.963Z,99039.44
2023-11-24T01:07:09.384Z,99041.06
2023-11-24T01:09:37.108Z,99033.47
2023-11-24T01:12:04.545Z,99037.47
2023-11-24T01:14:33.302Z,99026.28
2023-11-24T01:17:01.575Z,99035.06
2023-11-24T01:19:29.358Z,99042.75
2023-11-24T01:21:56.863Z,99041.69
2023-11-24T01:24:24.655Z,99038.19
2023-11-24T01:26:52.040Z,99029.09
2023-11-24T01:29:19.380Z,99031.06
2023-11-24T01:31:47.686Z,99017.84
2023-11-24T01:34:15.898Z,99005.28
2023-11-24T01:36:46.305Z,98999.16
2023-11-24T01:39:15.711Z,98993.16
2023-11-24T01:41:43.177Z,98980.97
2023-11-24T01:44:10.584Z,98976.28
2023-11-24T01:46:38.346Z,98965.25
2023-11-24T01:49:06.592Z,98958.13
2023-11-24T01:51:34.260Z,98950.56
2023-11-24T01:54:02.035Z,98940.28
2023-11-24T01:56:29.404Z,98944.84
2023-11-24T01:58:56.781Z,98947.13
2023-11-24T02:01:25.860Z,98955.41
2023-11-24T02:03:56.521Z,98944.38
2023-11-24T02:06:24.683Z,98941.22
2023-11-24T02:08:52.113Z,98941.37
2023-11-24T02:11:19.857Z,98927.84
2023-11-24T02:13:50.678Z,98920.38
2023-11-24T02:16:18.451Z,98914.62
2023-11-24T02:18:46.201Z,98909.69
2023-11-24T02:21:13.657Z,98892.56
2023-11-24T02:23:41.124Z,98884.50
2023-11-24T02:26:10.263Z,98870.81
2023-11-24T02:28:38.519Z,98880.97
2023-11-24T02:31:06.390Z,98871.44
2023-11-24T02:33:35.030Z,98861.53
2023-11-24T02:36:06.986Z,98849.06
2023-11-24T02:38:34.526Z,98844.00
2023-11-24T02:41:01.949Z,98836.72
2023-11-24T02:43:29.766Z,98818.78
2023-11-24T02:45:57.191Z,98820.09
2023-11-24T02:48:24.743Z,98817.94
2023-11-24T02:50:53.517Z,98805.41
2023-11-24T02:53:21.455Z,98793.75
2023-11-24T02:55:48.855Z,98787.97
2023-11-24T02:58:16.612Z,98784.69
2023-11-24T03:00:44.736Z,98803.87
2023-11-24T03:03:12.654Z,98817.06
2023-11-24T03:05:40.334Z,98802.91
2023-11-24T03:08:07.742Z,98803.09
2023-11-24T03:10:35.150Z,98803.38
2023-11-24T03:13:02.944Z,98801.59
2023-11-24T03:15:30.960Z,98812.72
2023-11-24T03:17:58.439Z,98802.28
2023-11-24T03:20:26.590Z,98796.44
2023-11-24T03:22:53.991Z,98789.66
2023-11-24T03:25:21.370Z,98770.50
2023-11-24T03:27:50.280Z,98753.38
2023-11-24T03:30:17.815Z,98748.63
2023-11-24T03:32:45.408Z,98741.03
2023-11-24T03:35:13.596Z,98741.34
2023-11-24T03:37:40.940Z,98745.41
2023-11-24T03:40:08.726Z,98737.00
2023-11-24T03:42:36.588Z,98726.31
2023-11-24T03:45:05.729Z,98712.69
2023-11-24T03:47:33.560Z,98705.94
2023-11-24T03:50:01.327Z,98697.31
2023-11-24T03:52:28.866Z,98689.09
2023-11-24T03:54:56.336Z,98689.03
2023-11-24T03:57:24.041Z,98685.44
2023-11-24T03:59:52.997Z,98684.41
2023-11-24T04:02:20.408Z,98688.38
2023-11-24T04:04:48.116Z,98685.28
2023-11-24T04:07:16.866Z,98679.66
2023-11-24T04:09:44.801Z,98671.34
2023-11-24T04:12:12.502Z,98666.50
2023-11-24T04:14:39.868Z,98652.84
2023-11-24T04:17:08.564Z,98648.66
2023-11-24T04:19:37.347Z,98635.41
2023-11-24T04:22:04.792Z,98623.31
2023-11-24T04:24:32.279Z,98620.41
2023-11-24T04:26:59.948Z,98611.13
2023-11-24T04:29:27.446Z,98609.50
2023-11-24T04:31:55.765Z,98610.88
2023-11-24T04:34:26.310Z,98611.88
2023-11-24T04:36:54.929Z,98611.22
2023-11-24T04:39:22.772Z,98608.75
2023-11-24T04:41:50.180Z,98600.66
2023-11-24T04:44:17.544Z,98586.59
2023-11-24T04:46:45.326Z,98590.41
2023-11-24T04:49:12.710Z,98582.75
2023-11-24T04:51:40.100Z,98573.94
2023-11-24T04:54:07.837Z,98562.97
2023-11-24T04:56:35.191Z,98554.56
2023-11-24T04:59:02.604Z,98556.06
2023-11-24T05:01:30.795Z,98556.91
2023-11-24T05:04:00.814Z,98558.81
2023-11-24T05:06:28.401Z,98563.22
2023-11-24T05:08:56.128Z,98566.03
2023-11-24T05:11:23.536Z,98563.19
2023-11-24T05:13:50.984Z,98556.81
2023-11-24T05:16:18.761Z,98566.38
2023-11-24T05:18:46.332Z,98547.25
2023-11-24T05:21:13.749Z,98549.97
2023-11-24T05:23:42.051Z,98542.59
2023-11-24T05:26:09.440Z,98528.41
2023-11-24T05:28:36.841Z,98534.81
2023-11-24T05:31:06.120Z,98522.97
2023-11-24T05:33:34.379Z,98514.34
2023-11-24T05:36:01.796Z,98511.94
2023-11-24T05:38:29.409Z,98508.13
2023-11-24T05:40:56.793Z,98507.31
2023-11-24T05:43:24.170Z,98505.69
2023-11-24T05:45:51.905Z,98494.03
2023-11-24T05:48:19.317Z,98489.38
2023-11-24T05:50:46.758Z,98482.03
2023-11-24T05:53:14.396Z,98467.53
2023-11-24T05:55:41.794Z,98470.88
2023-11-24T05:58:09.737Z,98462.09
2023-11-24T06:00:37.397Z,98457.66
2023-11-24T06:03:05.063Z,98467.41
2023-11-24T06:05:32.571Z,98473.06
2023-11-24T06:08:02.574Z,98478.09
2023-11-24T06:10:30.687Z,98478.03
2023-11-24T06:12:58.426Z,98475.69
2023-11-24T06:15:27.086Z,98473.62
2023-11-24T06:20:22.180Z,98478.84
2023-11-24T06:22:49.725Z,98479.22
2023-11-24T06:25:17.432Z,98464.59
2023-11-24T06:27:45.311Z,98468.97
2023-11-24T06:30:13.143Z,98474.22
2023-11-24T06:32:40.912Z,98479.72
2023-11-24T06:35:08.633Z,98488.44
2023-11-24T06:37:36.034Z,98488.62
2023-11-24T06:40:04.404Z,98482.75
2023-11-24T06:42:31.983Z,98496.69
2023-11-24T06:44:59.440Z,98493.84
2023-11-24T06:47:27.682Z,98489.41
2023-11-24T06:49:55.232Z,98489.78
2023-11-24T06:52:22.592Z,98491.22
2023-11-24T06:54:50.299Z,98492.19
2023-11-24T06:57:17.838Z,98493.25
2023-11-24T06:59:45.310Z,98500.66
2023-11-24T07:02:13.063Z,98504.72
2023-11-24T07:04:41.202Z,98507.37
2023-11-24T07:07:08.645Z,98485.88
2023-11-24T07:09:36.350Z,98493.63
2023-11-24T07:12:03.831Z,98499.53
2023-11-24T07:14:31.242Z,98500.28
2023-11-24T07:16:59.014Z,98499.59
2023-11-24T07:19:26.494Z,98498.19
2023-11-24T07:21:54.007Z,98499.87
2023-11-24T07:24:21.814Z,98492.69
2023-11-24T07:26:49.216Z,98487.97
2023-11-24T07:29:16.928Z,98494.09
2023-11-24T07:31:47.385Z,98503.94
2023-11-24T07:34:14.894Z,98504.34
2023-11-24T07:36:42.351Z,98500.84
2023-11-24T07:39:11.539Z,98502.97
2023-11-24T07:41:38.973Z,98513.09
2023-11-24T07:44:06.657Z,98526.94
2023-11-24T07:46:34.441Z,98511.75
2023-11-24T07:49:01.876Z,98505.47
2023-11-24T07:51:29.356Z,98498.63
2023-11-24T07:53:57.011Z,98502.97
2023-11-24T07:56:24.438Z,98505.38
2023-11-24T07:58:51.830Z,98508.81
2023-11-24T08:01:19.522Z,98505.19
2023-11-24T08:03:47.239Z,98509.72
2023-11-24T08:06:16.392Z,98516.88
2023-11-24T08:08:43.818Z,98523.94
2023-11-24T08:11:12.174Z,98526.25
2023-11-24T08:13:39.922Z,98524.72
2023-11-24T08:16:07.620Z,98525.53
2023-11-24T08:18:36.846Z,98521.38
2023-11-24T08:21:04.622Z,98507.69
2023-11-24T08:23:32.015Z,98518.16
2023-11-24T08:25:59.642Z,98509.94
2023-11-24T08:28:27.115Z,98511.22
2023-11-24T08:30:56.382Z,98508.22
2023-11-24T08:33:24.110Z,98511.59
2023-11-24T08:35:51.469Z,98513.47
2023-11-24T08:38:18.877Z,98519.47
2023-11-24T08:40:46.592Z,98518.41
2023-11-24T08:43:14.015Z,98531.53
2023-11-24T08:45:41.584Z,98537.81
2023-11-24T08:48:10.314Z,98539.97
2023-11-24T08:50:38.803Z,98541.81
2023-11-24T08:53:06.824Z,98541.81
2023-11-24T08:55:34.440Z,98538.34
2023-11-24T08:58:02.208Z,98532.22
2023-11-24T09:00:30.198Z,98551.06
2023-11-24T09:02:59.558Z,98520.16
2023-11-24T09:05:28.270Z,98499.66
2023-11-24T09:07:55.907Z,98512.19
2023-11-24T09:10:23.622Z,98490.63
2023-11-24T09:12:51.082Z,98493.63
2023-11-24T09:15:18.505Z,98476.22
2023-11-24T09:17:46.234Z,98486.25
2023-11-24T09:20:18.362Z,98508.94
2023-11-24T09:22:46.582Z,98496.59
2023-11-24T09:25:16.122Z,98485.28
2023-11-24T09:27:44.480Z,98476.03
2023-11-24T09:30:13.082Z,98456.00
2023-11-24T09:32:43.208Z,98447.19
2023-11-24T09:35:10.940Z,98436.00
2023-11-24T09:37:38.714Z,98446.25
2023-11-24T09:40:14.236Z,98412.22
2023-11-24T09:42:46.573Z,98418.53
2023-11-24T09:45:25.651Z,98423.87
2023-11-24T09:47:53.917Z,98419.00
2023-11-24T09:50:26.496Z,98402.50
2023-11-24T09:52:57.561Z,98391.38
2023-11-24T09:55:27.478Z,98383.44
2023-11-24T09:57:57.415Z,98397.41
2023-11-24T10:00:27.309Z,98384.81
2023-11-24T10:02:58.248Z,98387.41
2023-11-24T10:05:27.635Z,98379.16
2023-11-24T10:07:55.263Z,98383.50
2023-11-24T10:10:23.930Z,98366.53
2023-11-24T10:12:54.461Z,98365.19
2023-11-24T10:15:21.882Z,98350.56
2023-11-24T10:17:50.072Z,98363.03
2023-11-24T10:20:23.859Z,98356.19
2023-11-24T10:22:51.777Z,98382.53
2023-11-24T10:25:22.645Z,98369.72
2023-11-24T10:27:50.159Z,98368.78
2023-11-24T10:30:19.446Z,98355.16
2023-11-24T10:32:48.757Z,98347.00
2023-11-24T10:35:16.315Z,98326.13
2023-11-24T10:37:47.968Z,98349.81
2023-11-24T10:40:16.981Z,98341.75
2023-11-24T10:42:52.333Z,98329.41
2023-11-24T10:45:22.931Z,98322.34
2023-11-24T10:48:12.458Z,98315.19
2023-11-24T10:50:42.756Z,98309.06
2023-11-24T10:53:29.225Z,98309.94
2023-11-24T10:55:57.850Z,98299.63
2023-11-24T10:58:26.361Z,98298.56
2023-11-24T11:00:54.023Z,98292.06
2023-11-24T11:03:21.880Z,98266.75
2023-11-24T11:06:10.920Z,98261.91
2023-11-24T11:08:44.289Z,98260.47
2023-11-24T11:11:37.413Z,98272.78
2023-11-24T11:14:08.921Z,98275.00
2023-11-24T11:16:38.711Z,98279.03
2023-11-24T11:19:31.900Z,98281.56
2023-11-24T11:22:01.687Z,98280.28
2023-11-24T11:24:31.972Z,98277.75
2023-11-24T11:26:59.935Z,98316.87
2023-11-24T11:29:29.395Z,98307.44
2023-11-24T11:31:57.377Z,98297.91
2023-11-24T11:34:32.231Z,98322.94
2023-11-24T11:37:07.040Z,98288.31
2023-11-24T11:39:35.687Z,98262.31
2023-11-24T11:42:13.800Z,98273.09
2023-11-24T11:44:49.591Z,98249.72
2023-11-24T11:47:30.161Z,98271.28
2023-11-24T11:50:04.966Z,98260.53
2023-11-24T11:52:36.782Z,98262.84
2023-11-24T11:55:06.710Z,98259.72
2023-11-24T11:57:34.213Z,98263.13
2023-11-24T12:00:02.162Z,98266.66
2023-11-24T12:02:33.778Z,98249.34
2023-11-24T12:05:01.630Z,98263.69
2023-11-24T12:07:29.929Z,98260.72
2023-11-24T12:09:57.585Z,98268.84
2023-11-24T12:12:25.528Z,98271.78
2023-11-24T12:14:55.926Z,98260.81
2023-11-24T12:17:25.077Z,98250.00
2023-11-24T12:19:53.533Z,98247.75
2023-11-24T12:22:21.034Z,98263.75
2023-11-24T12:24:48.620Z,98285.91
2023-11-24T12:27:16.337Z,98280.31
2023-11-24T12:29:46.344Z,98261.28
2023-11-24T12:32:15.198Z,98246.00
2023-11-24T12:34:47.174Z,98273.22
2023-11-24T12:37:15.102Z,98289.00
2023-11-24T12:39:42.950Z,98272.03
2023-11-24T12:42:12.276Z,98275.06
2023-11-24T12:44:40.880Z,98256.13
2023-11-24T12:47:13.983Z,98256.16
2023-11-24T12:49:55.084Z,98277.66
2023-11-24T12:52:22.769Z,98285.22
2023-11-24T12:54:51.010Z,98272.47
2023-11-24T12:57:18.523Z,98268.56
2023-11-24T12:59:46.261Z,98277.41
2023-11-24T13:02:14.320Z,98265.34
2023-11-24T13:04:42.940Z,98266.00
2023-11-24T13:07:10.789Z,98237.56
2023-11-24T13:09:38.255Z,98241.91
2023-11-24T13:12:15.758Z,98234.88
2023-11-24T13:14:46.706Z,98237.62
2023-11-24T13:17:14.314Z,98232.53
2023-11-24T13:19:43.848Z,98225.47
2023-11-24T13:22:12.472Z,98232.31
2023-11-24T13:24:41.473Z,98230.78
2023-11-24T13:27:10.818Z,98219.53
2023-11-24T13:29:41.179Z,98204.66
2023-11-24T13:32:09.163Z,98189.69
2023-11-24T13:34:36.615Z,98183.25
2023-11-24T13:37:04.405Z,98183.91
2023-11-24T13:39:33.158Z,98182.72
2023-11-24T13:42:00.607Z,98190.12
2023-11-24T13:44:30.969Z,98188.34
2023-11-24T13:46:58.684Z,98182.91
2023-11-24T13:49:27.100Z,98181.66
2023-11-24T13:51:58.680Z,98170.50
2023-11-24T13:54:27.035Z,98165.91
2023-11-24T13:56:56.567Z,98166.88
2023-11-24T13:59:26.164Z,98155.69
2023-11-24T14:01:53.787Z,98156.69
2023-11-24T14:04:22.955Z,98164.50
2023-11-24T14:06:53.459Z,98157.69
2023-11-24T14:09:21.858Z,98153.88
2023-11-24T14:11:49.912Z,98149.25
2023-11-24T14:14:17.411Z,98164.63
2023-11-24T14:16:48.012Z,98164.28
2023-11-24T14:19:15.677Z,98154.69
2023-11-24T14:21:43.123Z,98156.69
2023-11-24T14:24:12.799Z,98150.47
2023-11-24T14:26:45.340Z,98144.06
2023-11-24T14:29:13.479Z,98153.34
2023-11-24T14:31:41.057Z,98153.25
2023-11-24T14:34:08.946Z,98173.38
2023-11-24T14:36:41.054Z,98152.44
2023-11-24T14:39:26.058Z,98161.00
2023-11-24T14:41:57.169Z,98157.84
2023-11-24T14:44:25.171Z,98144.13
2023-11-24T14:46:52.771Z,98136.22
2023-11-24T14:49:20.606Z,98141.69
2023-11-24T14:51:49.911Z,98133.34
2023-11-24T14:54:18.397Z,98141.56
2023-11-24T14:56:49.182Z,98145.41
2023-11-24T14:59:18.001Z,98143.63
2023-11-24T15:01:47.005Z,98152.22
2023-11-24T15:04:17.895Z,98147.16
2023-11-24T15:06:51.571Z,98129.62
2023-11-24T15:09:25.981Z,98116.19
2023-11-24T15:11:53.992Z,98106.53
2023-11-24T15:14:34.607Z,98100.81
2023-11-24T15:17:05.928Z,98094.69
2023-11-24T15:19:37.606Z,98113.03
2023-11-24T15:22:19.813Z,98118.16
2023-11-24T15:24:50.767Z,98118.13
2023-11-24T15:27:19.695Z,98137.47
2023-11-24T15:29:47.319Z,98130.03
2023-11-24T15:32:20.099Z,98117.94
2023-11-24T15:34:47.962Z,98116.72
2023-11-24T15:37:15.398Z,98124.88
2023-11-24T15:39:44.196Z,98127.72
2023-11-24T15:42:16.020Z,98134.69
2023-11-24T15:44:45.617Z,98140.81
2023-11-24T15:47:13.474Z,98154.66
2023-11-24T15:49:42.784Z,98142.22
2023-11-24T15:52:13.434Z,98159.78
2023-11-24T15:54:41.935Z,98153.84
2023-11-24T15:57:13.097Z,98157.09
2023-11-24T15:59:46.825Z,98143.03
2023-11-24T16:02:21.759Z,98147.50
2023-11-24T16:04:57.600Z,98146.09
2023-11-24T16:07:32.970Z,98141.78
2023-11-24T16:10:01.848Z,98134.25
2023-11-24T16:12:34.491Z,98123.66
2023-11-24T16:15:02.202Z,98130.41
2023-11-24T16:17:29.794Z,98137.50
2023-11-24T16:19:57.282Z,98153.12
2023-11-24T16:22:25.400Z,98161.03
2023-11-24T16:24:52.933Z,98156.69
2023-11-24T16:27:20.560Z,98147.09
2023-11-24T16:29:48.249Z,98134.19
2023-11-24T16:32:15.700Z,98132.75
2023-11-24T16:34:45.373Z,98131.69
2023-11-24T16:37:14.426Z,98131.78
2023-11-24T16:39:41.842Z,98144.41
2023-11-24T16:42:09.598Z,98150.28
2023-11-24T16:44:37.701Z,98152.38
2023-11-24T16:47:07.262Z,98143.00
2023-11-24T16:49:34.665Z,98137.72
2023-11-24T16:52:04.511Z,98146.06
2023-11-24T16:54:32.075Z,98147.72
2023-11-24T16:56:59.464Z,98143.63
2023-11-24T16:59:27.111Z,98119.56
2023-11-24T17:01:55.539Z,98101.44
2023-11-24T17:04:23.061Z,98100.59
2023-11-24T17:06:51.349Z,98119.75
2023-11-24T17:09:20.069Z,98111.19
2023-11-24T17:11:47.709Z,98119.06
2023-11-24T17:14:15.951Z,98121.34
2023-11-24T17:16:44.503Z,98117.69
2023-11-24T17:19:16.644Z,98106.59
2023-11-24T17:21:49.187Z,98098.69
2023-11-24T17:24:16.794Z,98094.34
2023-11-24T17:26:45.051Z,98097.47
2023-11-24T17:29:15.617Z,98101.16
2023-11-24T17:31:43.810Z,98111.75
2023-11-24T17:34:13.729Z,98109.22
2023-11-24T17:36:41.717Z,98095.63
2023-11-24T17:39:10.280Z,98094.00
2023-11-24T17:41:38.638Z,98088.31
2023-11-24T17:44:12.697Z,98084.78
2023-11-24T17:46:40.876Z,98088.87
2023-11-24T17:49:12.648Z,98072.19
2023-11-24T17:51:42.441Z,98061.91
2023-11-24T17:54:10.743Z,98045.47
2023-11-24T17:56:38.317Z,98040.00
2023-11-24T17:59:06.703Z,98034.41
2023-11-24T18:01:35.813Z,98030.81
2023-11-24T18:04:03.793Z,98029.81
2023-11-24T18:06:31.264Z,98029.00
2023-11-24T18:08:58.776Z,98042.84
2023-11-24T18:11:32.892Z,98054.25
2023-11-24T18:14:01.099Z,98048.09
2023-11-24T18:16:29.027Z,98068.97
2023-11-24T18:18:56.505Z,98064.81
2023-11-24T18:21:25.887Z,98058.72
2023-11-24T18:23:54.483Z,98073.53
2023-11-24T18:26:21.898Z,98090.56
2023-11-24T18:28:50.468Z,98099.34
2023-11-24T18:31:18.303Z,98100.28
2023-11-24T18:33:45.733Z,98099.97
2023-11-24T18:36:13.168Z,98101.06
2023-11-24T18:38:41.830Z,98081.84
2023-11-24T18:41:09.258Z,98064.59
2023-11-24T18:43:40.305Z,98063.66
2023-11-24T18:46:08.924Z,98083.62
2023-11-24T18:48:36.609Z,98079.03
2023-11-24T18:51:04.206Z,98069.50
2023-11-24T18:53:31.888Z,98064.31
2023-11-24T18:55:59.534Z,98056.69
2023-11-24T18:58:27.044Z,98056.53
2023-11-24T19:00:54.769Z,98062.72
2023-11-24T19:03:22.178Z,98071.47
2023-11-24T19:05:49.571Z,98068.72
2023-11-24T19:08:17.267Z,98071.66
2023-11-24T19:10:45.608Z,98078.22
2023-11-24T19:13:16.707Z,98077.03
2023-11-24T19:15:46.345Z,98064.03
2023-11-24T19:18:14.672Z,98054.91
2023-11-24T19:20:42.202Z,98051.44
2023-11-24T19:23:10.244Z,98044.91
2023-11-24T19:25:37.819Z,98035.56
2023-11-24T19:28:05.372Z,98041.06
2023-11-24T19:30:34.814Z,98056.59
2023-11-24T19:33:02.297Z,98075.34
2023-11-24T19:35:29.665Z,98086.63
2023-11-24T19:37:57.325Z,98095.22
2023-11-24T19:40:25.197Z,98105.25
2023-11-24T19:42:52.683Z,98117.78
2023-11-24T19:45:20.328Z,98125.59
2023-11-24T19:47:47.734Z,98136.38
2023-11-24T19:50:15.363Z,98107.12
2023-11-24T19:52:43.025Z,98095.56
2023-11-24T19:55:10.413Z,98107.34
2023-11-24T19:57:37.808Z,98115.75
2023-11-24T20:00:09.625Z,98109.41
2023-11-24T20:02:37.762Z,98118.66
2023-11-24T20:05:06.945Z,98114.97
2023-11-24T20:07:34.470Z,98126.06
2023-11-24T20:10:02.291Z,98140.63
2023-11-24T20:12:30.373Z,98133.09
2023-11-24T20:14:58.224Z,98119.25
2023-11-24T20:17:26.654Z,98107.31
2023-11-24T20:19:54.147Z,98089.09
2023-11-24T20:22:21.545Z,98080.69
2023-11-24T20:24:49.261Z,98075.56
2023-11-24T20:27:17.842Z,98074.38
2023-11-24T20:29:45.324Z,98062.88
2023-11-24T20:32:12.926Z,98054.94
2023-11-24T20:34:40.477Z,98042.63
2023-11-24T20:37:08.952Z,98046.28
2023-11-24T20:39:36.687Z,98052.44
2023-11-24T20:42:04.707Z,98059.69
2023-11-24T20:44:34.221Z,98057.56
2023-11-24T20:47:02.331Z,98062.72
2023-11-24T20:49:29.962Z,98058.81
2023-11-24T20:51:58.399Z,98067.41
2023-11-24T20:54:26.119Z,98073.94
2023-11-24T20:56:53.526Z,98072.31
2023-11-24T20:59:21.064Z,98066.84
2023-11-24T21:01:48.964Z,98066.75
2023-11-24T21:04:17.035Z,98049.41
2023-11-24T21:06:45.627Z,98050.47
2023-11-24T21:09:13.493Z,98056.16
2023-11-24T21:11:40.953Z,98056.91
2023-11-24T21:14:08.989Z,98064.44
2023-11-24T21:16:36.693Z,98066.84
2023-11-24T21:19:05.423Z,98067.84
2023-11-24T21:21:33.655Z,98056.22
2023-11-24T21:24:02.585Z,98045.78
2023-11-24T21:26:29.996Z,98046.97
2023-11-24T21:28:57.427Z,98037.97
2023-11-24T21:31:25.203Z,98038.88
2023-11-24T21:33:52.763Z,98023.66
2023-11-24T21:36:20.428Z,98025.44
2023-11-24T21:38:48.100Z,98042.75
2023-11-24T21:41:20.668Z,98051.94
2023-11-24T21:43:49.177Z,98048.81
2023-11-24T21:46:23.174Z,98048.25
2023-11-24T21:48:51.133Z,98055.09
2023-11-24T21:51:18.638Z,98064.84
2023-11-24T21:53:46.457Z,98069.72
2023-11-24T21:56:14.184Z,98064.59
2023-11-24T21:58:41.589Z,98065.19
2023-11-24T22:01:09.087Z,98077.09
2023-11-24T22:03:36.844Z,98078.78
2023-11-24T22:06:04.684Z,98072.78
2023-11-24T22:08:32.196Z,98075.03
2023-11-24T22:10:59.932Z,98074.94
2023-11-24T22:13:27.392Z,98070.03
2023-11-24T22:15:54.918Z,98067.56
2023-11-24T22:18:22.573Z,98078.38
2023-11-24T22:20:50.027Z,98081.97
2023-11-24T22:23:17.376Z,98077.78
2023-11-24T22:25:45.055Z,98076.12
2023-11-24T22:28:13.484Z,98071.63
2023-11-24T22:30:42.212Z,98071.25
2023-11-24T22:33:09.957Z,98069.88
2023-11-24T22:35:37.436Z,98070.03
2023-11-24T22:38:05.115Z,98056.50
2023-11-24T22:40:32.899Z,98057.37
2023-11-24T22:43:01.040Z,98077.31
2023-11-24T22:45:28.603Z,98073.66
2023-11-24T22:47:56.688Z,98070.03
2023-11-24T22:50:24.137Z,98060.06
2023-11-24T22:52:51.536Z,98046.25
2023-11-24T22:55:19.314Z,98051.41
2023-11-24T22:57:47.042Z,98053.09
2023-11-24T23:00:30.727Z,98047.69
2023-11-24T23:02:58.716Z,98057.50
2023-11-24T23:05:26.223Z,98057.31
2023-11-24T23:07:53.636Z,98057.37
2023-11-24T23:10:22.675Z,98039.78
2023-11-24T23:12:50.137Z,98035.72
2023-11-24T23:15:18.120Z,98024.97
2023-11-24T23:17:46.108Z,98030.81
2023-11-24T23:20:15.486Z,98020.44
2023-11-24T23:22:43.795Z,98029.88
2023-11-24T23:25:12.190Z,98039.44
2023-11-24T23:27:40.270Z,98033.59
2023-11-24T23:30:09.469Z,98035.88
2023-11-24T23:32:37.359Z,98042.31
2023-11-24T23:35:08.652Z,98059.22
2023-11-24T23:37:36.473Z,98047.84
2023-11-24T23:40:14.646Z,98031.16
2023-11-24T23:42:43.650Z,98041.84
2023-11-24T23:45:11.718Z,98043.28
2023-11-24T23:49:57.488Z,98028.00
2023-11-24T23:52:26.037Z,98028.00
2023-11-24T23:54:53.871Z,98027.06
2023-11-24T23:57:21.216Z,98033.91
2023-11-24T23:59:48.893Z,98026.66
